Terminal Aerodrome Forecast
Issued by NWS Cleveland, OH

Home | Current Version | Previous Version | Graphics & Text | Print | Product List | Glossary On
Versions: 1 2 3 4 5 6 7 8 9 10 11 12 13 14 15 16 17 18 19 20 21 22 23 24
000
FTUS41 KCLE 260541
TAFMFD
TAF
KMFD 260541Z 2606/2706 12006KT P6SM SCT120 OVC250
     FM261000 15008KT P6SM SCT045 OVC120
     FM261400 16011KT 5SM -RA BR SCT025 OVC045
     FM261600 18012KT 3SM -RA BR OVC025
     FM262000 18012KT 6SM BR OVC035
      TEMPO 2620/2624 5SM -TSRA OVC025CB
     FM270200 16004KT 3SM BR SCT004 BKN045=

USA.gov is the U.S. government's official web portal to all federal, state and local government web resources and services.